createdAt,value
2018-05-29T00:02:18.981Z,100712.33
2018-05-29T00:04:48.239Z,100707.37
2018-05-29T00:07:16.922Z,100709.67
2018-05-29T00:09:45.619Z,100702.43
2018-05-29T00:12:14.265Z,100700.11
2018-05-29T00:14:44.312Z,100702.36
2018-05-29T00:17:13.832Z,100699.28
2018-05-29T00:19:42.925Z,100693.50
2018-05-29T00:22:12.070Z,100702.66
2018-05-29T00:24:41.001Z,100700.03
2018-05-29T00:27:17.142Z,100705.07
2018-05-29T00:29:46.437Z,100699.47
2018-05-29T00:32:15.723Z,100698.40
2018-05-29T00:34:45.187Z,100699.31
2018-05-29T00:37:14.032Z,100696.42
2018-05-29T00:39:50.701Z,100693.26
2018-05-29T00:42:19.862Z,100699.98
2018-05-29T00:44:48.556Z,100704.32
2018-05-29T00:47:18.618Z,100695.24
2018-05-29T00:49:48.231Z,100696.53
2018-05-29T00:52:17.981Z,100689.27
2018-05-29T00:55:26.125Z,100689.53
2018-05-29T00:57:54.806Z,100690.20
2018-05-29T01:00:28.228Z,100694.73
2018-05-29T01:03:14.630Z,100687.58
2018-05-29T01:05:44.345Z,100682.73
2018-05-29T01:08:13.215Z,100685.30
2018-05-29T01:10:42.454Z,100680.92
2018-05-29T01:16:01.104Z,100674.94
2018-05-29T01:18:45.989Z,100675.25
2018-05-29T01:21:20.404Z,100675.06
2018-05-29T01:23:53.885Z,100671.82
2018-05-29T01:26:34.292Z,100672.21
2018-05-29T01:29:20.991Z,100667.75
2018-05-29T01:31:53.314Z,100661.23
2018-05-29T01:34:27.772Z,100658.70
2018-05-29T01:39:49.036Z,100654.69
2018-05-29T01:42:21.412Z,100650.83
2018-05-29T01:44:57.090Z,100652.02
2018-05-29T01:47:39.059Z,100651.41
2018-05-29T01:55:52.162Z,100641.20
2018-05-29T01:58:24.415Z,100633.78
2018-05-29T02:00:53.120Z,100631.44
2018-05-29T02:03:22.778Z,100629.91
2018-05-29T02:05:51.830Z,100629.17
2018-05-29T02:08:20.505Z,100627.84
2018-05-29T02:10:49.225Z,100627.64
2018-05-29T02:13:17.894Z,100625.62
2018-05-29T02:15:46.582Z,100624.08
2018-05-29T02:18:15.220Z,100628.97
2018-05-29T02:20:43.925Z,100625.08
2018-05-29T02:23:12.603Z,100624.78
2018-05-29T02:25:41.313Z,100620.34
2018-05-29T02:28:09.963Z,100622.51
2018-05-29T02:30:38.620Z,100626.05
2018-05-29T02:33:07.309Z,100622.38
2018-05-29T02:35:37.986Z,100627.57
2018-05-29T02:38:10.834Z,100620.20
2018-05-29T02:40:39.964Z,100617.00
2018-05-29T02:43:09.333Z,100619.55
2018-05-29T02:45:38.351Z,100617.77
2018-05-29T02:48:07.032Z,100623.50
2018-05-29T02:50:35.651Z,100624.31
2018-05-29T02:53:05.101Z,100624.31
2018-05-29T02:55:33.788Z,100626.44
2018-05-29T02:58:02.511Z,100625.88
2018-05-29T03:00:31.729Z,100626.09
2018-05-29T03:03:00.688Z,100629.39
2018-05-29T03:05:32.008Z,100628.53
2018-05-29T03:08:00.689Z,100630.52
2018-05-29T03:10:29.339Z,100625.08
2018-05-29T03:13:00.512Z,100619.93
2018-05-29T03:15:32.191Z,100620.59
2018-05-29T03:18:00.877Z,100625.80
2018-05-29T03:20:30.023Z,100624.75
2018-05-29T03:22:59.307Z,100620.80
2018-05-29T03:25:28.029Z,100626.23
2018-05-29T03:28:00.222Z,100628.84
2018-05-29T03:30:31.842Z,100623.39
2018-05-29T03:33:00.678Z,100625.06
2018-05-29T03:35:29.616Z,100623.23
2018-05-29T03:37:58.650Z,100622.22
2018-05-29T03:40:27.374Z,100624.55
2018-05-29T03:42:56.414Z,100625.05
2018-05-29T03:45:27.838Z,100622.64
2018-05-29T03:47:59.331Z,100622.05
2018-05-29T03:50:28.643Z,100616.45
2018-05-29T03:52:57.502Z,100618.80
2018-05-29T03:55:26.191Z,100622.95
2018-05-29T03:57:56.153Z,100620.68
2018-05-29T04:00:31.740Z,100628.62
2018-05-29T04:03:01.192Z,100629.33
2018-05-29T04:05:30.009Z,100626.92
2018-05-29T04:07:59.091Z,100630.56
2018-05-29T04:10:28.035Z,100623.66
2018-05-29T04:12:57.382Z,100626.37
2018-05-29T04:15:26.451Z,100630.67
2018-05-29T04:17:58.064Z,100635.69
2018-05-29T04:20:29.640Z,100641.65
2018-05-29T04:22:58.783Z,100635.44
2018-05-29T04:25:27.950Z,100636.97
2018-05-29T04:30:49.812Z,100635.32
2018-05-29T04:33:20.370Z,100640.90
2018-05-29T04:35:48.884Z,100639.14
2018-05-29T04:38:18.175Z,100631.41
2018-05-29T04:40:47.052Z,100637.56
2018-05-29T04:43:15.666Z,100643.73
2018-05-29T04:45:47.388Z,100640.78
2018-05-29T04:48:16.628Z,100644.33
2018-05-29T04:50:46.624Z,100637.34
2018-05-29T04:53:15.722Z,100637.77
2018-05-29T04:55:44.799Z,100633.53
2018-05-29T04:58:13.443Z,100634.98
2018-05-29T05:00:42.673Z,100630.77
2018-05-29T05:03:13.778Z,100633.28
2018-05-29T05:05:42.624Z,100631.47
2018-05-29T05:08:13.690Z,100622.46
2018-05-29T05:10:51.687Z,100629.69
2018-05-29T05:13:20.818Z,100627.88
2018-05-29T05:15:49.688Z,100620.25
2018-05-29T05:18:21.884Z,100623.19
2018-05-29T05:20:50.919Z,100619.17
2018-05-29T05:23:20.198Z,100624.38
2018-05-29T05:25:49.366Z,100626.87
2018-05-29T05:28:18.589Z,100625.41
2018-05-29T05:30:47.256Z,100621.47
2018-05-29T05:33:15.942Z,100631.03
2018-05-29T05:35:44.881Z,100632.22
2018-05-29T05:38:18.295Z,100633.22
2018-05-29T05:40:49.527Z,100635.25
2018-05-29T05:46:14.959Z,100629.23
2018-05-29T05:48:49.364Z,100633.47
2018-05-29T05:51:20.317Z,100634.56
2018-05-29T05:53:51.032Z,100632.61
2018-05-29T05:56:24.447Z,100629.00
2018-05-29T05:58:56.239Z,100632.44
2018-05-29T06:01:28.405Z,100626.72
2018-05-29T06:06:49.467Z,100619.06
2018-05-29T06:12:11.477Z,100615.62
2018-05-29T06:14:43.069Z,100607.89
2018-05-29T06:17:15.261Z,100605.15
2018-05-29T06:19:47.592Z,100608.09
2018-05-29T06:22:22.363Z,100609.59
2018-05-29T06:25:01.198Z,100608.24
2018-05-29T06:27:32.321Z,100602.91
2018-05-29T06:30:05.582Z,100602.17
2018-05-29T06:32:34.858Z,100601.33
2018-05-29T06:35:06.517Z,100600.30
2018-05-29T06:37:38.120Z,100600.16
2018-05-29T06:40:09.358Z,100597.33
2018-05-29T06:42:40.904Z,100595.92
2018-05-29T06:45:21.042Z,100597.23
2018-05-29T06:50:40.977Z,100595.70
2018-05-29T06:53:11.969Z,100593.48
2018-05-29T07:01:34.481Z,100583.36
2018-05-29T07:04:09.195Z,100577.34
2018-05-29T07:06:42.250Z,100579.11
2018-05-29T07:09:12.997Z,100576.42
2018-05-29T07:11:45.984Z,100574.19
2018-05-29T07:14:27.974Z,100572.74
2018-05-29T07:16:59.123Z,100570.52
2018-05-29T07:19:29.978Z,100565.55
2018-05-29T07:21:59.361Z,100564.36
2018-05-29T07:24:29.416Z,100567.03
2018-05-29T07:27:00.754Z,100562.26
2018-05-29T07:29:30.570Z,100555.69
2018-05-29T07:32:06.889Z,100551.11
2018-05-29T07:34:39.499Z,100552.34
2018-05-29T07:37:12.549Z,100550.61
2018-05-29T07:39:43.356Z,100548.45
2018-05-29T07:42:17.355Z,100541.25
2018-05-29T07:44:48.646Z,100536.20
2018-05-29T07:47:27.127Z,100542.70
2018-05-29T07:50:09.708Z,100535.03
2018-05-29T07:52:40.886Z,100543.86
2018-05-29T07:55:13.666Z,100539.34
2018-05-29T07:57:45.899Z,100534.28
2018-05-29T08:00:15.334Z,100534.83
2018-05-29T08:02:47.130Z,100538.28
2018-05-29T08:05:23.056Z,100530.38
2018-05-29T08:07:52.447Z,100531.61
2018-05-29T08:10:22.258Z,100523.03
2018-05-29T08:12:53.765Z,100521.59
2018-05-29T08:15:24.908Z,100522.78
2018-05-29T08:18:04.432Z,100523.20
2018-05-29T08:20:33.683Z,100524.45
2018-05-29T08:23:03.686Z,100520.84
2018-05-29T08:25:33.089Z,100519.23
2018-05-29T08:28:07.896Z,100518.86
2018-05-29T08:30:39.718Z,100524.00
2018-05-29T08:33:10.674Z,100524.53
2018-05-29T08:35:40.049Z,100516.04
2018-05-29T08:38:10.481Z,100510.06
2018-05-29T08:40:44.285Z,100513.15
2018-05-29T08:43:13.663Z,100504.36
2018-05-29T08:45:43.003Z,100502.16
2018-05-29T08:48:14.560Z,100494.23
2018-05-29T08:50:43.845Z,100500.27
2018-05-29T08:53:13.752Z,100492.31
2018-05-29T08:55:47.877Z,100492.93
2018-05-29T08:58:17.398Z,100487.74
2018-05-29T09:00:47.076Z,100491.39
2018-05-29T09:03:17.823Z,100492.91
2018-05-29T09:05:47.985Z,100492.86
2018-05-29T09:08:21.112Z,100487.39
2018-05-29T09:10:50.344Z,100487.72
2018-05-29T09:13:23.042Z,100492.55
2018-05-29T09:15:59.647Z,100493.83
2018-05-29T09:18:34.232Z,100486.44
2018-05-29T09:23:53.725Z,100486.84
2018-05-29T09:26:24.389Z,100485.77
2018-05-29T09:28:57.923Z,100487.13
2018-05-29T09:31:32.752Z,100485.73
2018-05-29T09:34:01.927Z,100480.20
2018-05-29T09:36:36.906Z,100477.33
2018-05-29T09:39:06.299Z,100475.72
2018-05-29T09:41:35.460Z,100474.95
2018-05-29T09:44:06.263Z,100474.84
2018-05-29T09:46:35.554Z,100470.92
2018-05-29T09:49:05.749Z,100470.66
2018-05-29T09:51:37.366Z,100474.30
2018-05-29T09:54:08.131Z,100473.36
2018-05-29T09:56:37.425Z,100466.96
2018-05-29T09:59:09.670Z,100465.02
2018-05-29T10:01:39.953Z,100459.77
2018-05-29T10:04:09.322Z,100449.39
2018-05-29T10:06:38.421Z,100453.85
2018-05-29T10:09:07.703Z,100453.52
2018-05-29T10:14:25.770Z,100447.67
2018-05-29T10:17:08.890Z,100447.92
2018-05-29T10:19:38.929Z,100440.20
2018-05-29T10:24:57.922Z,100434.34
2018-05-29T10:27:28.600Z,100439.17
2018-05-29T10:29:57.865Z,100437.72
2018-05-29T10:32:33.120Z,100430.89
2018-05-29T10:40:40.569Z,100424.02
2018-05-29T10:43:12.080Z,100424.30
2018-05-29T10:45:41.380Z,100428.95
2018-05-29T10:48:13.094Z,100421.83
2018-05-29T10:50:53.758Z,100427.34
2018-05-29T10:53:24.288Z,100426.25
2018-05-29T10:58:48.769Z,100411.42
2018-05-29T11:01:18.725Z,100407.41
2018-05-29T11:03:53.779Z,100407.98
2018-05-29T11:06:24.072Z,100401.80
2018-05-29T11:09:09.636Z,100397.46
2018-05-29T11:11:43.010Z,100397.92
2018-05-29T11:14:12.966Z,100396.74
2018-05-29T11:16:49.788Z,100396.45
2018-05-29T11:19:19.745Z,100383.00
2018-05-29T11:21:48.922Z,100383.98
2018-05-29T11:24:22.011Z,100380.44
2018-05-29T11:26:54.522Z,100379.55
2018-05-29T11:29:26.483Z,100369.34
2018-05-29T11:31:55.822Z,100379.73
2018-05-29T11:34:24.950Z,100375.42
2018-05-29T11:36:55.506Z,100371.34
2018-05-29T11:39:26.857Z,100375.84
2018-05-29T11:41:56.190Z,100370.48
2018-05-29T11:44:26.459Z,100367.33
2018-05-29T11:46:57.630Z,100357.33
2018-05-29T11:52:16.826Z,100365.20
2018-05-29T11:54:46.112Z,100352.20
2018-05-29T11:57:15.435Z,100357.14
2018-05-29T11:59:46.237Z,100349.27
2018-05-29T12:02:15.654Z,100343.31
2018-05-29T12:04:45.328Z,100329.66
2018-05-29T12:07:18.430Z,100338.09
2018-05-29T12:09:47.622Z,100336.76
2018-05-29T12:12:26.236Z,100327.67
2018-05-29T12:14:55.423Z,100336.22
2018-05-29T12:17:27.631Z,100330.38
2018-05-29T12:19:56.847Z,100338.72
2018-05-29T12:22:33.985Z,100326.95
2018-05-29T12:25:03.560Z,100320.73
2018-05-29T12:27:34.326Z,100318.61
2018-05-29T12:30:03.604Z,100308.69
2018-05-29T12:32:33.763Z,100316.79
2018-05-29T12:35:05.654Z,100304.75
2018-05-29T12:37:37.344Z,100300.52
2018-05-29T12:40:06.592Z,100296.91
2018-05-29T12:42:37.275Z,100297.63
2018-05-29T12:45:06.336Z,100296.30
2018-05-29T12:47:36.931Z,100294.99
2018-05-29T12:50:06.051Z,100302.08
2018-05-29T12:52:36.443Z,100298.26
2018-05-29T12:55:06.106Z,100300.12
2018-05-29T12:57:42.290Z,100296.32
2018-05-29T13:00:12.555Z,100299.42
2018-05-29T13:02:45.930Z,100292.53
2018-05-29T13:05:17.849Z,100300.98
2018-05-29T13:07:47.197Z,100300.09
2018-05-29T13:10:17.711Z,100302.92
2018-05-29T13:12:55.270Z,100303.53
2018-05-29T13:15:26.794Z,100298.15
2018-05-29T13:17:57.503Z,100302.44
2018-05-29T13:20:26.707Z,100302.58
2018-05-29T13:23:11.983Z,100298.22
2018-05-29T13:25:41.539Z,100292.77
2018-05-29T13:28:12.147Z,100286.42
2018-05-29T13:30:44.466Z,100286.61
2018-05-29T13:33:14.151Z,100283.01
2018-05-29T13:35:43.302Z,100287.37
2018-05-29T13:38:15.562Z,100280.45
2018-05-29T13:40:48.128Z,100275.99
2018-05-29T13:43:20.023Z,100281.66
2018-05-29T13:45:49.677Z,100277.96
2018-05-29T13:48:19.805Z,100262.64
2018-05-29T13:50:49.058Z,100260.56
2018-05-29T13:53:18.524Z,100258.65
2018-05-29T13:55:49.661Z,100251.50
2018-05-29T13:58:25.200Z,100244.47
2018-05-29T14:01:01.093Z,100247.50
2018-05-29T14:03:30.542Z,100237.70
2018-05-29T14:05:59.946Z,100236.14
2018-05-29T14:08:30.791Z,100231.03
2018-05-29T14:11:01.526Z,100226.05
2018-05-29T14:16:25.493Z,100214.43
2018-05-29T14:18:59.371Z,100205.29
2018-05-29T14:21:32.393Z,100208.44
2018-05-29T14:24:18.904Z,100200.02
2018-05-29T14:26:48.672Z,100189.47
2018-05-29T14:32:07.241Z,100185.19
2018-05-29T14:34:39.716Z,100182.14
2018-05-29T14:37:11.345Z,100174.38
2018-05-29T14:39:43.167Z,100175.36
2018-05-29T14:42:11.965Z,100173.81
2018-05-29T14:44:43.983Z,100175.78
2018-05-29T14:47:17.958Z,100170.53
2018-05-29T14:49:50.490Z,100168.55
2018-05-29T14:52:19.801Z,100165.75
2018-05-29T14:54:57.009Z,100170.84
2018-05-29T14:57:28.106Z,100167.96
2018-05-29T14:59:59.352Z,100163.88
2018-05-29T15:02:29.709Z,100158.48
2018-05-29T15:05:12.658Z,100157.48
2018-05-29T15:07:44.743Z,100154.13
2018-05-29T15:10:21.909Z,100142.68
2018-05-29T15:12:56.892Z,100147.66
2018-05-29T15:15:26.280Z,100144.83
2018-05-29T15:18:02.914Z,100140.91
2018-05-29T15:23:21.697Z,100127.47
2018-05-29T15:25:58.029Z,100123.56
2018-05-29T15:28:30.206Z,100120.30
2018-05-29T15:31:00.383Z,100126.62
2018-05-29T15:33:35.501Z,100124.49
2018-05-29T15:41:51.863Z,100117.34
2018-05-29T15:44:35.861Z,100117.30
2018-05-29T15:47:13.189Z,100122.49
2018-05-29T15:49:42.702Z,100126.67
2018-05-29T15:52:12.699Z,100120.17
2018-05-29T15:54:52.637Z,100119.05
2018-05-29T15:57:25.443Z,100118.92
2018-05-29T15:59:55.948Z,100120.79
2018-05-29T16:02:25.227Z,100119.70
2018-05-29T16:04:56.393Z,100108.84
2018-05-29T16:07:26.438Z,100110.51
2018-05-29T16:10:03.559Z,100110.84
2018-05-29T16:12:33.626Z,100108.37
2018-05-29T16:15:04.467Z,100117.84
2018-05-29T16:17:33.471Z,100109.95
2018-05-29T16:20:06.136Z,100105.27
2018-05-29T16:22:36.158Z,100115.08
2018-05-29T16:25:05.366Z,100119.22
2018-05-29T16:27:40.194Z,100116.61
2018-05-29T16:30:18.813Z,100113.27
2018-05-29T16:32:56.180Z,100115.48
2018-05-29T16:35:25.230Z,100122.13
2018-05-29T16:37:58.371Z,100124.78
2018-05-29T16:40:27.519Z,100123.58
2018-05-29T16:42:56.590Z,100115.28
2018-05-29T16:45:25.468Z,100116.66
2018-05-29T16:47:54.854Z,100118.73
2018-05-29T16:50:31.216Z,100115.93
2018-05-29T16:53:01.689Z,100126.31
2018-05-29T16:55:33.873Z,100125.78
2018-05-29T16:58:04.486Z,100124.98
2018-05-29T17:00:34.116Z,100123.50
2018-05-29T17:03:04.129Z,100121.14
2018-05-29T17:05:36.917Z,100125.42
2018-05-29T17:08:13.213Z,100129.16
2018-05-29T17:10:47.055Z,100121.34
2018-05-29T17:13:24.814Z,100121.27
2018-05-29T17:15:55.020Z,100122.55
2018-05-29T17:21:18.472Z,100117.31
2018-05-29T17:26:41.114Z,100122.05
2018-05-29T17:29:11.679Z,100121.76
2018-05-29T17:31:41.856Z,100122.52
2018-05-29T17:34:18.764Z,100123.98
2018-05-29T17:37:06.365Z,100124.53
2018-05-29T17:39:36.939Z,100121.39
2018-05-29T17:42:07.025Z,100130.61
2018-05-29T17:44:36.740Z,100133.88
2018-05-29T17:47:08.217Z,100140.11
2018-05-29T17:49:37.542Z,100139.72
2018-05-29T17:52:09.592Z,100138.02
2018-05-29T17:54:42.763Z,100129.53
2018-05-29T17:57:18.222Z,100137.44
2018-05-29T17:59:51.203Z,100136.59
2018-05-29T18:02:20.452Z,100132.70
2018-05-29T18:04:51.827Z,100126.16
2018-05-29T18:07:24.592Z,100125.56
2018-05-29T18:09:53.805Z,100126.84
2018-05-29T18:12:24.084Z,100128.00
2018-05-29T18:14:54.480Z,100125.53
2018-05-29T18:17:24.940Z,100119.38
2018-05-29T18:19:54.812Z,100121.30
2018-05-29T18:22:28.393Z,100119.56
2018-05-29T18:24:57.775Z,100115.22
2018-05-29T18:27:31.352Z,100115.34
2018-05-29T18:30:00.450Z,100124.12
2018-05-29T18:32:31.966Z,100127.14
2018-05-29T18:35:03.348Z,100140.59
2018-05-29T18:37:35.572Z,100145.70
2018-05-29T18:40:09.398Z,100149.91
2018-05-29T18:42:41.645Z,100150.28
2018-05-29T18:45:13.292Z,100151.19
2018-05-29T18:47:45.778Z,100149.64
2018-05-29T18:53:11.403Z,100157.59
2018-05-29T18:55:41.516Z,100162.06
2018-05-29T18:58:17.315Z,100175.02
2018-05-29T19:00:47.812Z,100175.47
2018-05-29T19:03:24.526Z,100180.61
2018-05-29T19:05:54.103Z,100184.20
2018-05-29T19:11:19.933Z,100191.45
2018-05-29T19:13:51.890Z,100204.42
2018-05-29T19:16:23.563Z,100212.86
2018-05-29T19:18:57.984Z,100215.89
2018-05-29T19:21:44.587Z,100227.98
2018-05-29T19:24:19.259Z,100247.86
2018-05-29T19:26:50.963Z,100234.70
2018-05-29T19:29:21.421Z,100230.42
2018-05-29T19:31:54.913Z,100239.17
2018-05-29T19:34:25.665Z,100233.09
2018-05-29T19:37:02.372Z,100222.16
2018-05-29T19:42:22.975Z,100213.13
2018-05-29T19:44:57.862Z,100216.16
2018-05-29T19:47:31.243Z,100214.14
2018-05-29T19:50:07.321Z,100210.78
2018-05-29T19:52:49.891Z,100206.06
2018-05-29T19:55:31.870Z,100206.77
2018-05-29T19:58:06.780Z,100209.03
2018-05-29T20:00:40.772Z,100200.38
2018-05-29T20:03:14.033Z,100202.02
2018-05-29T20:05:53.410Z,100208.80
2018-05-29T20:08:23.764Z,100206.63
2018-05-29T20:10:54.001Z,100198.62
2018-05-29T20:13:23.272Z,100198.12
2018-05-29T20:15:56.966Z,100193.31
2018-05-29T20:18:29.001Z,100193.83
2018-05-29T20:20:58.470Z,100188.06
2018-05-29T20:23:32.680Z,100186.03
2018-05-29T20:26:02.690Z,100182.20
2018-05-29T20:28:38.348Z,100178.84
2018-05-29T20:31:08.145Z,100174.85
2018-05-29T20:33:38.925Z,100168.67
2018-05-29T20:36:09.140Z,100168.35
2018-05-29T20:38:41.573Z,100168.77
2018-05-29T20:41:16.177Z,100173.48
2018-05-29T20:43:49.516Z,100161.05
2018-05-29T20:46:29.816Z,100166.13
2018-05-29T20:49:02.386Z,100175.48
2018-05-29T20:51:37.709Z,100171.42
2018-05-29T20:54:19.756Z,100183.02
2018-05-29T20:56:51.547Z,100186.67
2018-05-29T20:59:37.166Z,100182.98
2018-05-29T21:02:09.217Z,100181.42
2018-05-29T21:04:39.238Z,100186.84
2018-05-29T21:07:09.957Z,100191.05
2018-05-29T21:09:48.662Z,100200.23
2018-05-29T21:12:20.040Z,100205.60
2018-05-29T21:14:49.984Z,100205.27
2018-05-29T21:17:22.847Z,100205.33
2018-05-29T21:19:54.813Z,100215.75
2018-05-29T21:22:25.762Z,100203.45
2018-05-29T21:24:57.237Z,100200.19
2018-05-29T21:27:27.600Z,100197.58
2018-05-29T21:29:56.794Z,100195.75
2018-05-29T21:32:37.016Z,100197.41
2018-05-29T21:35:08.287Z,100201.54
2018-05-29T21:37:41.180Z,100211.78
2018-05-29T21:40:13.946Z,100209.31
2018-05-29T21:42:46.381Z,100218.42
2018-05-29T21:45:18.744Z,100226.95
2018-05-29T21:47:49.133Z,100227.05
2018-05-29T21:50:20.000Z,100232.17
2018-05-29T21:52:51.567Z,100238.42
2018-05-29T21:55:24.762Z,100233.09
2018-05-29T21:57:53.953Z,100232.15
2018-05-29T22:00:40.063Z,100227.88
2018-05-29T22:03:10.444Z,100225.71
2018-05-29T22:05:59.078Z,100226.16
2018-05-29T22:08:36.504Z,100224.84
2018-05-29T22:11:06.911Z,100223.10
2018-05-29T22:13:37.530Z,100222.80
2018-05-29T22:16:09.072Z,100235.65
2018-05-29T22:18:39.222Z,100230.91
2018-05-29T22:21:10.835Z,100245.45
2018-05-29T22:23:40.390Z,100249.45
2018-05-29T22:26:18.958Z,100253.33
2018-05-29T22:28:58.311Z,100261.02
2018-05-29T22:34:26.176Z,100248.72
2018-05-29T22:36:56.421Z,100242.92
2018-05-29T22:39:27.274Z,100250.50
2018-05-29T22:42:00.424Z,100248.74
2018-05-29T22:44:29.612Z,100255.33
2018-05-29T22:47:00.186Z,100253.97
2018-05-29T22:49:30.735Z,100255.00
2018-05-29T22:52:10.921Z,100259.80
2018-05-29T22:54:45.045Z,100257.83
2018-05-29T22:57:14.256Z,100250.84
2018-05-29T22:59:44.473Z,100253.05
2018-05-29T23:02:14.371Z,100251.78
2018-05-29T23:04:44.932Z,100240.55
2018-05-29T23:07:28.642Z,100239.81
2018-05-29T23:09:58.481Z,100236.28
2018-05-29T23:12:31.780Z,100243.87
2018-05-29T23:15:02.922Z,100246.23
2018-05-29T23:17:32.408Z,100239.00
2018-05-29T23:20:01.654Z,100221.47
2018-05-29T23:22:33.114Z,100219.43
2018-05-29T23:25:04.650Z,100213.27
2018-05-29T23:27:37.617Z,100215.35
2018-05-29T23:30:07.744Z,100212.30
2018-05-29T23:32:39.064Z,100218.08
2018-05-29T23:35:08.434Z,100223.15
2018-05-29T23:37:40.431Z,100228.95
2018-05-29T23:40:13.260Z,100225.80
2018-05-29T23:42:48.074Z,100234.01
2018-05-29T23:45:18.474Z,100235.03
2018-05-29T23:47:49.074Z,100240.25
2018-05-29T23:50:18.581Z,100258.64
2018-05-29T23:52:52.972Z,100261.44
2018-05-29T23:55:21.833Z,100253.76
2018-05-29T23:57:51.565Z,100247.84
